sensor_id;sensor_type;location;lat;lon;timestamp;pressure;altitude;pressure_sealevel;temperature;humidity
6349;BME280;3207;42.648;23.406;2023-02-19T00:00:12;100495.16;;;11.06;nan
6349;BME280;3207;42.648;23.406;2023-02-19T00:02:41;100482.41;;;11.02;nan
6349;BME280;3207;42.648;23.406;2023-02-19T00:05:09;100489.50;;;10.99;nan
6349;BME280;3207;42.648;23.406;2023-02-19T00:07:36;100478.50;;;10.94;nan
6349;BME280;3207;42.648;23.406;2023-02-19T00:10:03;100484.66;;;10.93;nan
6349;BME280;3207;42.648;23.406;2023-02-19T00:12:30;100492.72;;;11.03;nan
6349;BME280;3207;42.648;23.406;2023-02-19T00:14:57;100488.69;;;11.12;nan
6349;BME280;3207;42.648;23.406;2023-02-19T00:17:25;100489.75;;;11.22;nan
6349;BME280;3207;42.648;23.406;2023-02-19T00:19:52;100488.06;;;11.21;nan
6349;BME280;3207;42.648;23.406;2023-02-19T00:22:19;100478.75;;;11.29;nan
6349;BME280;3207;42.648;23.406;2023-02-19T00:24:47;100486.19;;;11.23;nan
6349;BME280;3207;42.648;23.406;2023-02-19T00:27:14;100494.75;;;11.37;nan
6349;BME280;3207;42.648;23.406;2023-02-19T00:29:41;100490.16;;;11.28;nan
6349;BME280;3207;42.648;23.406;2023-02-19T00:32:07;100488.47;;;11.15;nan
6349;BME280;3207;42.648;23.406;2023-02-19T00:34:35;100495.50;;;11.27;nan
6349;BME280;3207;42.648;23.406;2023-02-19T00:37:02;100499.59;;;11.31;nan
6349;BME280;3207;42.648;23.406;2023-02-19T00:39:29;100488.81;;;11.23;nan
6349;BME280;3207;42.648;23.406;2023-02-19T00:41:56;100493.06;;;11.24;nan
6349;BME280;3207;42.648;23.406;2023-02-19T00:44:25;100491.31;;;11.12;nan
6349;BME280;3207;42.648;23.406;2023-02-19T00:46:51;100497.78;;;11.19;nan
6349;BME280;3207;42.648;23.406;2023-02-19T00:49:20;100489.75;;;11.22;nan
6349;BME280;3207;42.648;23.406;2023-02-19T00:51:50;100488.25;;;11.18;nan
6349;BME280;3207;42.648;23.406;2023-02-19T00:54:17;100491.63;;;11.20;nan
6349;BME280;3207;42.648;23.406;2023-02-19T00:56:44;100491.72;;;11.31;nan
6349;BME280;3207;42.648;23.406;2023-02-19T00:59:11;100491.84;;;11.29;nan
6349;BME280;3207;42.648;23.406;2023-02-19T01:01:37;100486.69;;;11.28;nan
6349;BME280;3207;42.648;23.406;2023-02-19T01:04:04;100482.00;;;11.20;nan
6349;BME280;3207;42.648;23.406;2023-02-19T01:06:31;100490.47;;;11.36;nan
6349;BME280;3207;42.648;23.406;2023-02-19T01:09:00;100473.31;;;11.32;nan
6349;BME280;3207;42.648;23.406;2023-02-19T01:11:27;100483.44;;;11.37;nan
6349;BME280;3207;42.648;23.406;2023-02-19T01:13:56;100484.09;;;11.41;nan
6349;BME280;3207;42.648;23.406;2023-02-19T01:16:23;100475.91;;;11.45;nan
6349;BME280;3207;42.648;23.406;2023-02-19T01:18:50;100486.38;;;11.45;nan
6349;BME280;3207;42.648;23.406;2023-02-19T01:21:18;100478.00;;;11.40;nan
6349;BME280;3207;42.648;23.406;2023-02-19T01:23:46;100480.72;;;11.26;nan
6349;BME280;3207;42.648;23.406;2023-02-19T01:26:16;100477.16;;;11.27;nan
6349;BME280;3207;42.648;23.406;2023-02-19T01:28:44;100473.19;;;11.21;nan
6349;BME280;3207;42.648;23.406;2023-02-19T01:31:12;100466.38;;;11.19;nan
6349;BME280;3207;42.648;23.406;2023-02-19T01:33:41;100454.56;;;11.00;nan
6349;BME280;3207;42.648;23.406;2023-02-19T01:36:09;100454.56;;;11.00;nan
6349;BME280;3207;42.648;23.406;2023-02-19T01:38:36;100469.09;;;11.05;nan
6349;BME280;3207;42.648;23.406;2023-02-19T01:41:05;100460.75;;;11.12;nan
6349;BME280;3207;42.648;23.406;2023-02-19T01:43:52;100461.56;;;11.13;nan
6349;BME280;3207;42.648;23.406;2023-02-19T01:46:20;100431.63;;;10.91;nan
6349;BME280;3207;42.648;23.406;2023-02-19T01:48:47;100444.72;;;11.04;nan
6349;BME280;3207;42.648;23.406;2023-02-19T01:51:16;100448.28;;;11.16;nan
6349;BME280;3207;42.648;23.406;2023-02-19T01:53:49;100444.72;;;11.17;nan
6349;BME280;3207;42.648;23.406;2023-02-19T01:56:18;100440.03;;;11.22;nan
6349;BME280;3207;42.648;23.406;2023-02-19T01:58:47;100437.19;;;11.12;nan
6349;BME280;3207;42.648;23.406;2023-02-19T02:01:14;100443.03;;;11.16;nan
6349;BME280;3207;42.648;23.406;2023-02-19T02:03:43;100455.06;;;11.06;nan
6349;BME280;3207;42.648;23.406;2023-02-19T02:06:16;100450.38;;;11.11;nan
6349;BME280;3207;42.648;23.406;2023-02-19T02:08:44;100443.03;;;11.16;nan
6349;BME280;3207;42.648;23.406;2023-02-19T02:11:29;100445.34;;;11.08;nan
6349;BME280;3207;42.648;23.406;2023-02-19T02:13:57;100440.00;;;10.96;nan
6349;BME280;3207;42.648;23.406;2023-02-19T02:16:31;100434.88;;;10.95;nan
6349;BME280;3207;42.648;23.406;2023-02-19T02:19:06;100432.97;;;10.84;nan
6349;BME280;3207;42.648;23.406;2023-02-19T02:22:03;100433.03;;;10.70;nan
6349;BME280;3207;42.648;23.406;2023-02-19T02:27:42;100416.00;;;10.64;nan
6349;BME280;3207;42.648;23.406;2023-02-19T02:30:26;100417.59;;;10.67;nan
6349;BME280;3207;42.648;23.406;2023-02-19T02:33:01;100414.97;;;10.67;nan
6349;BME280;3207;42.648;23.406;2023-02-19T02:35:38;100405.34;;;10.68;nan
6349;BME280;3207;42.648;23.406;2023-02-19T02:38:08;100412.25;;;10.81;nan
6349;BME280;3207;42.648;23.406;2023-02-19T02:40:39;100405.97;;;10.71;nan
6349;BME280;3207;42.648;23.406;2023-02-19T02:43:07;100407.88;;;10.69;nan
6349;BME280;3207;42.648;23.406;2023-02-19T02:45:35;100411.00;;;10.74;nan
6349;BME280;3207;42.648;23.406;2023-02-19T02:48:12;100399.78;;;10.72;nan
6349;BME280;3207;42.648;23.406;2023-02-19T02:50:44;100401.28;;;10.76;nan
6349;BME280;3207;42.648;23.406;2023-02-19T02:53:17;100411.22;;;10.84;nan
6349;BME280;3207;42.648;23.406;2023-02-19T02:56:04;100402.94;;;10.77;nan
6349;BME280;3207;42.648;23.406;2023-02-19T02:58:31;100400.34;;;10.77;nan
6349;BME280;3207;42.648;23.406;2023-02-19T03:01:04;100398.66;;;10.76;nan
6349;BME280;3207;42.648;23.406;2023-02-19T03:03:53;100405.88;;;10.85;nan
6349;BME280;3207;42.648;23.406;2023-02-19T03:06:24;100396.38;;;10.97;nan
6349;BME280;3207;42.648;23.406;2023-02-19T03:08:56;100398.34;;;10.93;nan
6349;BME280;3207;42.648;23.406;2023-02-19T03:11:24;100385.91;;;10.84;nan
6349;BME280;3207;42.648;23.406;2023-02-19T03:14:12;100396.81;;;10.91;nan
6349;BME280;3207;42.648;23.406;2023-02-19T03:17:03;100399.31;;;10.80;nan
6349;BME280;3207;42.648;23.406;2023-02-19T03:19:52;100403.34;;;10.71;nan
6349;BME280;3207;42.648;23.406;2023-02-19T03:22:22;100405.38;;;10.80;nan
6349;BME280;3207;42.648;23.406;2023-02-19T03:24:53;100399.91;;;10.83;nan
6349;BME280;3207;42.648;23.406;2023-02-19T03:27:41;100398.78;;;10.87;nan
6349;BME280;3207;42.648;23.406;2023-02-19T03:30:12;100405.13;;;10.83;nan
6349;BME280;3207;42.648;23.406;2023-02-19T03:32:45;100406.09;;;10.82;nan
6349;BME280;3207;42.648;23.406;2023-02-19T03:35:17;100403.25;;;10.85;nan
6349;BME280;3207;42.648;23.406;2023-02-19T03:37:51;100400.16;;;10.80;nan
6349;BME280;3207;42.648;23.406;2023-02-19T03:40:27;100407.25;;;10.78;nan
6349;BME280;3207;42.648;23.406;2023-02-19T03:42:59;100395.50;;;10.71;nan
6349;BME280;3207;42.648;23.406;2023-02-19T03:45:46;100411.94;;;10.86;nan
6349;BME280;3207;42.648;23.406;2023-02-19T03:48:23;100404.72;;;10.77;nan
6349;BME280;3207;42.648;23.406;2023-02-19T03:50:59;100399.59;;;10.75;nan
6349;BME280;3207;42.648;23.406;2023-02-19T03:53:32;100405.56;;;10.77;nan
6349;BME280;3207;42.648;23.406;2023-02-19T03:56:07;100404.72;;;10.77;nan
6349;BME280;3207;42.648;23.406;2023-02-19T03:58:40;100402.94;;;10.77;nan
6349;BME280;3207;42.648;23.406;2023-02-19T04:01:13;100393.00;;;10.82;nan
6349;BME280;3207;42.648;23.406;2023-02-19T04:03:48;100400.94;;;10.81;nan
6349;BME280;3207;42.648;23.406;2023-02-19T04:06:21;100407.13;;;10.67;nan
6349;BME280;3207;42.648;23.406;2023-02-19T04:08:53;100392.69;;;10.74;nan
6349;BME280;3207;42.648;23.406;2023-02-19T04:11:22;100398.66;;;10.76;nan
6349;BME280;3207;42.648;23.406;2023-02-19T04:13:54;100392.38;;;10.66;nan
6349;BME280;3207;42.648;23.406;2023-02-19T04:16:26;100392.78;;;10.73;nan
6349;BME280;3207;42.648;23.406;2023-02-19T04:18:57;100394.25;;;10.64;nan
6349;BME280;3207;42.648;23.406;2023-02-19T04:21:27;100402.50;;;10.71;nan
6349;BME280;3207;42.648;23.406;2023-02-19T04:23:55;100405.75;;;10.74;nan
6349;BME280;3207;42.648;23.406;2023-02-19T04:26:25;100397.19;;;10.72;nan
6349;BME280;3207;42.648;23.406;2023-02-19T04:28:52;100396.03;;;10.76;nan
6349;BME280;3207;42.648;23.406;2023-02-19T04:31:19;100397.19;;;10.72;nan
6349;BME280;3207;42.648;23.406;2023-02-19T04:33:46;100397.53;;;10.80;nan
6349;BME280;3207;42.648;23.406;2023-02-19T04:36:14;100393.44;;;10.76;nan
6349;BME280;3207;42.648;23.406;2023-02-19T04:38:41;100391.75;;;10.75;nan
6349;BME280;3207;42.648;23.406;2023-02-19T04:41:08;100383.63;;;10.80;nan
6349;BME280;3207;42.648;23.406;2023-02-19T04:43:35;100378.47;;;10.78;nan
6349;BME280;3207;42.648;23.406;2023-02-19T04:46:02;100373.44;;;10.75;nan
6349;BME280;3207;42.648;23.406;2023-02-19T04:48:29;100372.50;;;10.63;nan
6349;BME280;3207;42.648;23.406;2023-02-19T04:50:55;100372.91;;;10.70;nan
6349;BME280;3207;42.648;23.406;2023-02-19T04:53:24;100365.81;;;10.72;nan
6349;BME280;3207;42.648;23.406;2023-02-19T04:55:50;100372.50;;;10.76;nan
6349;BME280;3207;42.648;23.406;2023-02-19T04:58:19;100360.81;;;10.69;nan
6349;BME280;3207;42.648;23.406;2023-02-19T05:00:50;100366.63;;;10.73;nan
6349;BME280;3207;42.648;23.406;2023-02-19T05:03:17;100372.72;;;10.73;nan
6349;BME280;3207;42.648;23.406;2023-02-19T05:05:44;100368.31;;;10.74;nan
6349;BME280;3207;42.648;23.406;2023-02-19T05:08:10;100371.13;;;10.71;nan
6349;BME280;3207;42.648;23.406;2023-02-19T05:10:38;100375.13;;;10.76;nan
6349;BME280;3207;42.648;23.406;2023-02-19T05:13:05;100373.44;;;10.75;nan
6349;BME280;3207;42.648;23.406;2023-02-19T05:15:32;100375.94;;;10.64;nan
6349;BME280;3207;42.648;23.406;2023-02-19T05:17:59;100383.59;;;10.67;nan
6349;BME280;3207;42.648;23.406;2023-02-19T05:20:25;100372.91;;;10.70;nan
6349;BME280;3207;42.648;23.406;2023-02-19T05:22:52;100375.13;;;10.76;nan
6349;BME280;3207;42.648;23.406;2023-02-19T05:25:19;100367.25;;;10.63;nan
6349;BME280;3207;42.648;23.406;2023-02-19T05:27:47;100356.59;;;10.54;nan
6349;BME280;3207;42.648;23.406;2023-02-19T05:30:14;100356.81;;;10.63;nan
6349;BME280;3207;42.648;23.406;2023-02-19T05:32:41;100365.50;;;10.64;nan
6349;BME280;3207;42.648;23.406;2023-02-19T05:35:07;100361.19;;;10.63;nan
6349;BME280;3207;42.648;23.406;2023-02-19T05:37:34;100364.97;;;10.59;nan
6349;BME280;3207;42.648;23.406;2023-02-19T05:40:01;100361.00;;;10.66;nan
6349;BME280;3207;42.648;23.406;2023-02-19T05:42:28;100364.97;;;10.72;nan
6349;BME280;3207;42.648;23.406;2023-02-19T05:44:56;100364.34;;;10.68;nan
6349;BME280;3207;42.648;23.406;2023-02-19T05:47:23;100361.22;;;10.76;nan
6349;BME280;3207;42.648;23.406;2023-02-19T05:49:49;100362.06;;;10.76;nan
6349;BME280;3207;42.648;23.406;2023-02-19T05:52:16;100363.94;;;10.74;nan
6349;BME280;3207;42.648;23.406;2023-02-19T05:54:43;100361.84;;;10.79;nan
6349;BME280;3207;42.648;23.406;2023-02-19T05:57:10;100366.47;;;10.88;nan
6349;BME280;3207;42.648;23.406;2023-02-19T05:59:36;100370.50;;;10.92;nan
6349;BME280;3207;42.648;23.406;2023-02-19T06:02:05;100362.56;;;11.07;nan
6349;BME280;3207;42.648;23.406;2023-02-19T06:04:31;100371.25;;;11.20;nan
6349;BME280;3207;42.648;23.406;2023-02-19T06:06:58;100376.09;;;11.00;nan
6349;BME280;3207;42.648;23.406;2023-02-19T06:09:25;100381.09;;;10.78;nan
6349;BME280;3207;42.648;23.406;2023-02-19T06:11:52;100370.81;;;10.62;nan
6349;BME280;3207;42.648;23.406;2023-02-19T06:14:18;100371.25;;;10.69;nan
6349;BME280;3207;42.648;23.406;2023-02-19T06:16:45;100371.66;;;10.63;nan
6349;BME280;3207;42.648;23.406;2023-02-19T06:19:13;100380.31;;;10.38;nan
6349;BME280;3207;42.648;23.406;2023-02-19T06:21:40;100379.78;;;10.46;nan
6349;BME280;3207;42.648;23.406;2023-02-19T06:24:07;100379.56;;;10.36;nan
6349;BME280;3207;42.648;23.406;2023-02-19T06:26:34;100367.66;;;10.45;nan
6349;BME280;3207;42.648;23.406;2023-02-19T06:29:01;100366.63;;;10.60;nan
6349;BME280;3207;42.648;23.406;2023-02-19T06:31:28;100366.22;;;10.66;nan
6349;BME280;3207;42.648;23.406;2023-02-19T06:33:55;100365.41;;;10.78;nan
6349;BME280;3207;42.648;23.406;2023-02-19T06:36:23;100359.94;;;10.81;nan
6349;BME280;3207;42.648;23.406;2023-02-19T06:38:51;100377.75;;;11.02;nan
6349;BME280;3207;42.648;23.406;2023-02-19T06:41:18;100366.75;;;11.09;nan
6349;BME280;3207;42.648;23.406;2023-02-19T06:43:44;100363.16;;;11.35;nan
6349;BME280;3207;42.648;23.406;2023-02-19T06:46:12;100376.22;;;11.48;nan
6349;BME280;3207;42.648;23.406;2023-02-19T06:48:40;100379.19;;;11.67;nan
6349;BME280;3207;42.648;23.406;2023-02-19T06:51:10;100387.69;;;11.84;nan
6349;BME280;3207;42.648;23.406;2023-02-19T06:53:39;100385.63;;;12.00;nan
6349;BME280;3207;42.648;23.406;2023-02-19T06:56:06;100380.44;;;12.11;nan
6349;BME280;3207;42.648;23.406;2023-02-19T06:58:45;100375.19;;;12.11;nan
6349;BME280;3207;42.648;23.406;2023-02-19T07:01:12;100375.09;;;12.13;nan
6349;BME280;3207;42.648;23.406;2023-02-19T07:03:38;100378.22;;;12.18;nan
6349;BME280;3207;42.648;23.406;2023-02-19T07:06:06;100377.88;;;12.22;nan
6349;BME280;3207;42.648;23.406;2023-02-19T07:08:32;100373.34;;;12.24;nan
6349;BME280;3207;42.648;23.406;2023-02-19T07:11:01;100369.22;;;12.33;nan
6349;BME280;3207;42.648;23.406;2023-02-19T07:13:27;100368.88;;;12.37;nan
6349;BME280;3207;42.648;23.406;2023-02-19T07:15:57;100356.22;;;12.31;nan
6349;BME280;3207;42.648;23.406;2023-02-19T07:18:26;100372.72;;;12.44;nan
6349;BME280;3207;42.648;23.406;2023-02-19T07:20:53;100362.22;;;12.44;nan
6349;BME280;3207;42.648;23.406;2023-02-19T07:23:20;100375.84;;;12.50;nan
6349;BME280;3207;42.648;23.406;2023-02-19T07:25:47;100382.56;;;12.41;nan
6349;BME280;3207;42.648;23.406;2023-02-19T07:28:15;100373.88;;;12.40;nan
6349;BME280;3207;42.648;23.406;2023-02-19T07:30:41;100386.03;;;12.41;nan
6349;BME280;3207;42.648;23.406;2023-02-19T07:33:09;100378.63;;;12.35;nan
6349;BME280;3207;42.648;23.406;2023-02-19T07:35:36;100361.53;;;12.19;nan
6349;BME280;3207;42.648;23.406;2023-02-19T07:38:03;100366.69;;;12.31;nan
6349;BME280;3207;42.648;23.406;2023-02-19T07:40:30;100381.63;;;12.42;nan
6349;BME280;3207;42.648;23.406;2023-02-19T07:42:58;100375.22;;;12.46;nan
6349;BME280;3207;42.648;23.406;2023-02-19T07:45:26;100374.59;;;12.42;nan
6349;BME280;3207;42.648;23.406;2023-02-19T07:47:53;100381.56;;;12.55;nan
6349;BME280;3207;42.648;23.406;2023-02-19T07:50:19;100378.47;;;12.61;nan
6349;BME280;3207;42.648;23.406;2023-02-19T07:52:46;100381.88;;;12.50;nan
6349;BME280;3207;42.648;23.406;2023-02-19T07:55:13;100381.34;;;12.58;nan
6349;BME280;3207;42.648;23.406;2023-02-19T07:57:40;100390.25;;;12.55;nan
6349;BME280;3207;42.648;23.406;2023-02-19T08:00:07;100391.72;;;12.59;nan
6349;BME280;3207;42.648;23.406;2023-02-19T08:02:36;100337.44;;;12.14;nan
6349;BME280;3207;42.648;23.406;2023-02-19T08:05:20;100407.88;;;12.53;nan
6349;BME280;3207;42.648;23.406;2023-02-19T08:07:47;100390.16;;;12.57;nan
6349;BME280;3207;42.648;23.406;2023-02-19T08:10:13;100395.03;;;12.61;nan
6349;BME280;3207;42.648;23.406;2023-02-19T08:12:59;100385.38;;;12.62;nan
6349;BME280;3207;42.648;23.406;2023-02-19T08:15:45;100392.09;;;12.66;nan
6349;BME280;3207;42.648;23.406;2023-02-19T08:18:14;100386.84;;;12.66;nan
6349;BME280;3207;42.648;23.406;2023-02-19T08:20:42;100380.13;;;12.62;nan
6349;BME280;3207;42.648;23.406;2023-02-19T08:23:09;100380.13;;;12.62;nan
6349;BME280;3207;42.648;23.406;2023-02-19T08:25:37;100383.03;;;12.70;nan
6349;BME280;3207;42.648;23.406;2023-02-19T08:28:04;100385.69;;;12.81;nan
6349;BME280;3207;42.648;23.406;2023-02-19T08:30:31;100384.50;;;12.96;nan
6349;BME280;3207;42.648;23.406;2023-02-19T08:32:59;100384.16;;;12.90;nan
6349;BME280;3207;42.648;23.406;2023-02-19T08:35:28;100386.78;;;13.01;nan
6349;BME280;3207;42.648;23.406;2023-02-19T08:37:55;100387.41;;;13.15;nan
6349;BME280;3207;42.648;23.406;2023-02-19T08:40:22;100384.34;;;13.33;nan
6349;BME280;3207;42.648;23.406;2023-02-19T08:42:49;100368.22;;;13.26;nan
6349;BME280;3207;42.648;23.406;2023-02-19T08:45:16;100378.59;;;13.28;nan
6349;BME280;3207;42.648;23.406;2023-02-19T08:47:43;100385.50;;;13.29;nan
6349;BME280;3207;42.648;23.406;2023-02-19T08:50:10;100389.31;;;13.36;nan
6349;BME280;3207;42.648;23.406;2023-02-19T08:52:39;100411.28;;;13.46;nan
6349;BME280;3207;42.648;23.406;2023-02-19T08:55:06;100404.63;;;13.53;nan
6349;BME280;3207;42.648;23.406;2023-02-19T08:57:34;100412.13;;;13.57;nan
6349;BME280;3207;42.648;23.406;2023-02-19T09:00:02;100415.84;;;13.55;nan
6349;BME280;3207;42.648;23.406;2023-02-19T09:02:29;100411.53;;;13.65;nan
6349;BME280;3207;42.648;23.406;2023-02-19T09:04:56;100401.09;;;13.86;nan
6349;BME280;3207;42.648;23.406;2023-02-19T09:07:23;100409.53;;;14.01;nan
6349;BME280;3207;42.648;23.406;2023-02-19T09:09:51;100404.19;;;13.91;nan
6349;BME280;3207;42.648;23.406;2023-02-19T09:12:19;100406.09;;;13.89;nan
6349;BME280;3207;42.648;23.406;2023-02-19T09:14:46;100395.38;;;13.81;nan
6349;BME280;3207;42.648;23.406;2023-02-19T09:17:13;100404.09;;;13.81;nan
6349;BME280;3207;42.648;23.406;2023-02-19T09:19:40;100398.59;;;13.84;nan
6349;BME280;3207;42.648;23.406;2023-02-19T09:22:06;100390.13;;;13.81;nan
6349;BME280;3207;42.648;23.406;2023-02-19T09:24:33;100390.84;;;13.83;nan
6349;BME280;3207;42.648;23.406;2023-02-19T09:27:02;100399.56;;;13.72;nan
6349;BME280;3207;42.648;23.406;2023-02-19T09:29:29;100399.69;;;13.71;nan
6349;BME280;3207;42.648;23.406;2023-02-19T09:31:56;100395.50;;;13.79;nan
6349;BME280;3207;42.648;23.406;2023-02-19T09:34:23;100389.25;;;13.91;nan
6349;BME280;3207;42.648;23.406;2023-02-19T09:36:51;100383.97;;;14.03;nan
6349;BME280;3207;42.648;23.406;2023-02-19T09:39:18;100374.41;;;14.02;nan
6349;BME280;3207;42.648;23.406;2023-02-19T09:41:46;100384.69;;;14.05;nan
6349;BME280;3207;42.648;23.406;2023-02-19T09:44:22;100395.63;;;14.21;nan
6349;BME280;3207;42.648;23.406;2023-02-19T09:46:51;100380.31;;;14.26;nan
6349;BME280;3207;42.648;23.406;2023-02-19T09:49:22;100371.91;;;14.32;nan
6349;BME280;3207;42.648;23.406;2023-02-19T09:51:55;100387.56;;;14.34;nan
6349;BME280;3207;42.648;23.406;2023-02-19T09:54:25;100381.28;;;14.57;nan
6349;BME280;3207;42.648;23.406;2023-02-19T09:56:54;100378.44;;;14.70;nan
6349;BME280;3207;42.648;23.406;2023-02-19T09:59:26;100392.25;;;14.83;nan
6349;BME280;3207;42.648;23.406;2023-02-19T10:02:00;100392.56;;;14.89;nan
6349;BME280;3207;42.648;23.406;2023-02-19T10:04:27;100378.38;;;15.01;nan
6349;BME280;3207;42.648;23.406;2023-02-19T10:06:55;100380.78;;;15.14;nan
6349;BME280;3207;42.648;23.406;2023-02-19T10:09:28;100389.38;;;15.16;nan
6349;BME280;3207;42.648;23.406;2023-02-19T10:11:57;100384.13;;;15.26;nan
6349;BME280;3207;42.648;23.406;2023-02-19T10:14:29;100372.25;;;15.31;nan
6349;BME280;3207;42.648;23.406;2023-02-19T10:17:02;100384.22;;;15.35;nan
6349;BME280;3207;42.648;23.406;2023-02-19T10:19:29;100376.72;;;15.41;nan
6349;BME280;3207;42.648;23.406;2023-02-19T10:21:57;100372.56;;;15.48;nan
6349;BME280;3207;42.648;23.406;2023-02-19T10:24:26;100374.13;;;15.50;nan
6349;BME280;3207;42.648;23.406;2023-02-19T10:26:54;100367.06;;;15.51;nan
6349;BME280;3207;42.648;23.406;2023-02-19T10:29:21;100386.44;;;15.40;nan
6349;BME280;3207;42.648;23.406;2023-02-19T10:32:10;100311.13;;;14.97;nan
6349;BME280;3207;42.648;23.406;2023-02-19T10:34:37;100362.47;;;15.53;nan
6349;BME280;3207;42.648;23.406;2023-02-19T10:37:10;100355.50;;;15.82;nan
6349;BME280;3207;42.648;23.406;2023-02-19T10:39:41;100356.38;;;16.31;nan
6349;BME280;3207;42.648;23.406;2023-02-19T10:42:17;100361.63;;;16.79;nan
6349;BME280;3207;42.648;23.406;2023-02-19T10:44:46;100370.75;;;17.31;nan
6349;BME280;3207;42.648;23.406;2023-02-19T10:47:18;100364.00;;;18.19;nan
6349;BME280;3207;42.648;23.406;2023-02-19T10:49:46;100351.94;;;18.86;nan
6349;BME280;3207;42.648;23.406;2023-02-19T10:52:17;100352.13;;;19.52;nan
6349;BME280;3207;42.648;23.406;2023-02-19T10:54:49;100358.75;;;19.48;nan
6349;BME280;3207;42.648;23.406;2023-02-19T10:57:24;100348.94;;;19.99;nan
6349;BME280;3207;42.648;23.406;2023-02-19T10:59:55;100351.94;;;20.85;nan
6349;BME280;3207;42.648;23.406;2023-02-19T11:02:24;100364.25;;;21.72;nan
6349;BME280;3207;42.648;23.406;2023-02-19T11:05:04;100358.06;;;22.56;nan
6349;BME280;3207;42.648;23.406;2023-02-19T11:07:31;100357.09;;;23.31;nan
6349;BME280;3207;42.648;23.406;2023-02-19T11:09:59;100347.75;;;24.07;nan
6349;BME280;3207;42.648;23.406;2023-02-19T11:12:27;100351.06;;;24.52;nan
6349;BME280;3207;42.648;23.406;2023-02-19T11:14:55;100337.28;;;26.98;nan
6349;BME280;3207;42.648;23.406;2023-02-19T11:17:25;100346.53;;;29.04;nan
6349;BME280;3207;42.648;23.406;2023-02-19T11:19:53;100345.19;;;31.09;nan
6349;BME280;3207;42.648;23.406;2023-02-19T11:22:28;100338.03;;;32.45;nan
6349;BME280;3207;42.648;23.406;2023-02-19T11:25:05;100343.31;;;33.29;nan
6349;BME280;3207;42.648;23.406;2023-02-19T11:27:32;100336.13;;;34.47;nan
6349;BME280;3207;42.648;23.406;2023-02-19T11:30:25;100332.34;;;34.90;nan
6349;BME280;3207;42.648;23.406;2023-02-19T11:33:13;100328.03;;;35.72;nan
6349;BME280;3207;42.648;23.406;2023-02-19T11:35:46;100331.91;;;36.72;nan
6349;BME280;3207;42.648;23.406;2023-02-19T11:38:14;100329.22;;;36.01;nan
6349;BME280;3207;42.648;23.406;2023-02-19T11:40:46;100336.06;;;36.34;nan
6349;BME280;3207;42.648;23.406;2023-02-19T11:43:30;100341.88;;;35.60;nan
6349;BME280;3207;42.648;23.406;2023-02-19T11:46:06;100328.66;;;36.45;nan
6349;BME280;3207;42.648;23.406;2023-02-19T11:48:52;100334.09;;;36.65;nan
6349;BME280;3207;42.648;23.406;2023-02-19T11:51:35;100340.06;;;36.67;nan
6349;BME280;3207;42.648;23.406;2023-02-19T11:54:17;100319.94;;;35.87;nan
6349;BME280;3207;42.648;23.406;2023-02-19T11:56:50;100330.59;;;35.16;nan
6349;BME280;3207;42.648;23.406;2023-02-19T11:59:26;100327.97;;;35.41;nan
6349;BME280;3207;42.648;23.406;2023-02-19T12:02:17;100324.66;;;35.29;nan
6349;BME280;3207;42.648;23.406;2023-02-19T12:08:17;100318.44;;;34.39;nan
6349;BME280;3207;42.648;23.406;2023-02-19T12:11:10;100311.84;;;34.30;nan
6349;BME280;3207;42.648;23.406;2023-02-19T12:13:55;100303.09;;;33.42;nan
6349;BME280;3207;42.648;23.406;2023-02-19T12:16:28;100295.53;;;32.12;nan
6349;BME280;3207;42.648;23.406;2023-02-19T12:19:12;100292.16;;;31.32;nan
6349;BME280;3207;42.648;23.406;2023-02-19T12:21:58;100291.31;;;29.91;nan
6349;BME280;3207;42.648;23.406;2023-02-19T12:27:37;100286.94;;;27.76;nan
6349;BME280;3207;42.648;23.406;2023-02-19T12:30:38;100282.56;;;26.86;nan
6349;BME280;3207;42.648;23.406;2023-02-19T12:33:49;100279.53;;;25.29;nan
6349;BME280;3207;42.648;23.406;2023-02-19T12:36:26;100282.13;;;24.75;nan
6349;BME280;3207;42.648;23.406;2023-02-19T12:39:04;100295.25;;;24.42;nan
6349;BME280;3207;42.648;23.406;2023-02-19T12:41:39;100294.31;;;24.07;nan
6349;BME280;3207;42.648;23.406;2023-02-19T12:44:11;100287.63;;;23.75;nan
6349;BME280;3207;42.648;23.406;2023-02-19T12:46:45;100277.72;;;23.69;nan
6349;BME280;3207;42.648;23.406;2023-02-19T12:49:17;100276.03;;;23.47;nan
6349;BME280;3207;42.648;23.406;2023-02-19T12:51:49;100268.03;;;22.96;nan
6349;BME280;3207;42.648;23.406;2023-02-19T12:54:24;100265.34;;;22.81;nan
6349;BME280;3207;42.648;23.406;2023-02-19T12:56:56;100258.00;;;22.83;nan
6349;BME280;3207;42.648;23.406;2023-02-19T12:59:29;100248.72;;;22.94;nan
6349;BME280;3207;42.648;23.406;2023-02-19T13:02:03;100243.72;;;22.91;nan
6349;BME280;3207;42.648;23.406;2023-02-19T13:04:38;100247.66;;;22.51;nan
6349;BME280;3207;42.648;23.406;2023-02-19T13:07:10;100245.53;;;22.46;nan
6349;BME280;3207;42.648;23.406;2023-02-19T13:09:45;100231.22;;;22.47;nan
6349;BME280;3207;42.648;23.406;2023-02-19T13:12:18;100214.66;;;22.37;nan
6349;BME280;3207;42.648;23.406;2023-02-19T13:14:48;100221.56;;;22.61;nan
6349;BME280;3207;42.648;23.406;2023-02-19T13:17:23;100217.69;;;22.49;nan
6349;BME280;3207;42.648;23.406;2023-02-19T13:19:55;100236.25;;;22.57;nan
6349;BME280;3207;42.648;23.406;2023-02-19T13:22:30;100169.13;;;21.95;nan
6349;BME280;3207;42.648;23.406;2023-02-19T13:25:20;100239.00;;;22.19;nan
6349;BME280;3207;42.648;23.406;2023-02-19T13:28:00;100227.41;;;21.89;nan
6349;BME280;3207;42.648;23.406;2023-02-19T13:30:52;100203.88;;;22.01;nan
6349;BME280;3207;42.648;23.406;2023-02-19T13:33:34;100215.09;;;22.11;nan
6349;BME280;3207;42.648;23.406;2023-02-19T13:36:09;100215.94;;;22.12;nan
6349;BME280;3207;42.648;23.406;2023-02-19T13:38:40;100207.66;;;22.07;nan
6349;BME280;3207;42.648;23.406;2023-02-19T13:41:19;100214.75;;;21.91;nan
6349;BME280;3207;42.648;23.406;2023-02-19T13:43:53;100202.06;;;22.02;nan
6349;BME280;3207;42.648;23.406;2023-02-19T13:46:21;100207.81;;;21.82;nan
6349;BME280;3207;42.648;23.406;2023-02-19T13:49:24;100193.88;;;21.80;nan
6349;BME280;3207;42.648;23.406;2023-02-19T13:51:52;100196.25;;;21.75;nan